sensor_id;sensor_type;location;lat;lon;timestamp;pressure;altitude;pressure_sealevel;temperature;humidity
34185;BME280;20454;48.100;11.776;2023-03-01T00:01:04;95954.72;;;1.29;83.81
34185;BME280;20454;48.100;11.776;2023-03-01T00:03:32;95946.75;;;1.28;83.36
34185;BME280;20454;48.100;11.776;2023-03-01T00:05:58;95959.44;;;1.34;83.13
34185;BME280;20454;48.100;11.776;2023-03-01T00:08:24;95963.81;;;1.35;83.41
34185;BME280;20454;48.100;11.776;2023-03-01T00:11:10;95946.50;;;1.29;83.15
34185;BME280;20454;48.100;11.776;2023-03-01T00:13:37;95958.91;;;1.37;82.50
34185;BME280;20454;48.100;11.776;2023-03-01T00:16:07;95956.13;;;1.32;82.92
34185;BME280;20454;48.100;11.776;2023-03-01T00:18:33;95946.97;;;1.26;83.03
34185;BME280;20454;48.100;11.776;2023-03-01T00:20:59;95948.06;;;1.25;82.67
34185;BME280;20454;48.100;11.776;2023-03-01T00:23:25;95959.59;;;1.27;82.72
34185;BME280;20454;48.100;11.776;2023-03-01T00:25:51;95948.16;;;1.30;82.95
34185;BME280;20454;48.100;11.776;2023-03-01T00:28:16;95951.38;;;1.27;83.10
34185;BME280;20454;48.100;11.776;2023-03-01T00:30:42;95943.44;;;1.26;83.48
34185;BME280;20454;48.100;11.776;2023-03-01T00:33:08;95948.97;;;1.31;82.69
34185;BME280;20454;48.100;11.776;2023-03-01T00:35:34;95945.00;;;1.22;82.88
34185;BME280;20454;48.100;11.776;2023-03-01T00:38:00;95938.19;;;1.24;83.17
34185;BME280;20454;48.100;11.776;2023-03-01T00:40:30;95948.91;;;1.26;82.84
34185;BME280;20454;48.100;11.776;2023-03-01T00:42:57;95949.47;;;1.28;82.81
34185;BME280;20454;48.100;11.776;2023-03-01T00:45:22;95948.91;;;1.26;83.21
34185;BME280;20454;48.100;11.776;2023-03-01T00:47:48;95940.69;;;1.26;82.80
34185;BME280;20454;48.100;11.776;2023-03-01T00:50:14;95943.69;;;1.24;83.44
34185;BME280;20454;48.100;11.776;2023-03-01T00:52:40;95934.88;;;1.22;83.01
34185;BME280;20454;48.100;11.776;2023-03-01T00:55:06;95928.50;;;1.17;83.01
34185;BME280;20454;48.100;11.776;2023-03-01T00:57:32;95925.91;;;1.27;82.87
34185;BME280;20454;48.100;11.776;2023-03-01T00:59:58;95930.22;;;1.23;82.50
34185;BME280;20454;48.100;11.776;2023-03-01T01:02:24;95925.25;;;1.20;82.61
34185;BME280;20454;48.100;11.776;2023-03-01T01:04:50;95935.13;;;1.21;82.94
34185;BME280;20454;48.100;11.776;2023-03-01T01:07:16;95916.47;;;1.18;83.26
34185;BME280;20454;48.100;11.776;2023-03-01T01:09:41;95912.97;;;1.22;82.40
34185;BME280;20454;48.100;11.776;2023-03-01T01:12:07;95915.72;;;1.22;83.09
34185;BME280;20454;48.100;11.776;2023-03-01T01:14:33;95901.69;;;1.19;82.91
34185;BME280;20454;48.100;11.776;2023-03-01T01:16:58;95902.50;;;1.19;83.49
34185;BME280;20454;48.100;11.776;2023-03-01T01:19:25;95894.56;;;1.18;83.29
34185;BME280;20454;48.100;11.776;2023-03-01T01:21:51;95896.22;;;1.19;83.59
34185;BME280;20454;48.100;11.776;2023-03-01T01:24:17;95898.63;;;1.15;83.15
34185;BME280;20454;48.100;11.776;2023-03-01T01:26:43;95895.06;;;1.15;83.57
34185;BME280;20454;48.100;11.776;2023-03-01T01:29:09;95894.25;;;1.14;84.02
34185;BME280;20454;48.100;11.776;2023-03-01T01:31:36;95892.06;;;1.16;83.40
34185;BME280;20454;48.100;11.776;2023-03-01T01:34:03;95885.75;;;1.16;83.16
34185;BME280;20454;48.100;11.776;2023-03-01T01:36:29;95891.50;;;1.14;83.43
34185;BME280;20454;48.100;11.776;2023-03-01T01:38:55;95883.78;;;1.11;83.64
34185;BME280;20454;48.100;11.776;2023-03-01T01:41:21;95879.72;;;1.14;83.53
34185;BME280;20454;48.100;11.776;2023-03-01T01:44:08;95881.34;;;1.15;83.75
34185;BME280;20454;48.100;11.776;2023-03-01T01:46:34;95885.44;;;1.12;82.83
34185;BME280;20454;48.100;11.776;2023-03-01T01:49:04;95874.75;;;1.11;83.30
34185;BME280;20454;48.100;11.776;2023-03-01T01:51:41;95869.53;;;1.09;83.62
34185;BME280;20454;48.100;11.776;2023-03-01T01:54:12;95869.53;;;1.09;83.31
34185;BME280;20454;48.100;11.776;2023-03-01T01:56:40;95867.88;;;1.08;83.96
34185;BME280;20454;48.100;11.776;2023-03-01T01:59:07;95867.09;;;1.13;83.06
34185;BME280;20454;48.100;11.776;2023-03-01T02:01:34;95850.59;;;1.08;83.94
34185;BME280;20454;48.100;11.776;2023-03-01T02:03:59;95846.13;;;1.02;84.24
34185;BME280;20454;48.100;11.776;2023-03-01T02:06:31;95853.41;;;1.13;83.22
34185;BME280;20454;48.100;11.776;2023-03-01T02:09:00;95858.09;;;1.17;83.06
34185;BME280;20454;48.100;11.776;2023-03-01T02:11:27;95850.91;;;1.11;82.52
34185;BME280;20454;48.100;11.776;2023-03-01T02:13:54;95850.91;;;1.11;83.00
34185;BME280;20454;48.100;11.776;2023-03-01T02:16:20;95851.13;;;1.05;83.52
34185;BME280;20454;48.100;11.776;2023-03-01T02:18:46;95856.31;;;1.06;83.65
34185;BME280;20454;48.100;11.776;2023-03-01T02:23:53;95857.16;;;1.07;84.53
34185;BME280;20454;48.100;11.776;2023-03-01T02:26:42;95844.78;;;1.04;84.26
34185;BME280;20454;48.100;11.776;2023-03-01T02:29:10;95841.56;;;1.07;83.17
34185;BME280;20454;48.100;11.776;2023-03-01T02:31:36;95837.13;;;1.06;82.86
34185;BME280;20454;48.100;11.776;2023-03-01T02:34:16;95843.97;;;1.04;82.96
34185;BME280;20454;48.100;11.776;2023-03-01T02:36:51;95847.78;;;1.03;83.14
34185;BME280;20454;48.100;11.776;2023-03-01T02:39:21;95844.78;;;1.04;83.05
34185;BME280;20454;48.100;11.776;2023-03-01T02:41:53;95841.75;;;1.01;83.09
34185;BME280;20454;48.100;11.776;2023-03-01T02:44:20;95845.63;;;1.05;82.74
34185;BME280;20454;48.100;11.776;2023-03-01T02:46:50;95841.16;;;0.99;82.30
34185;BME280;20454;48.100;11.776;2023-03-01T02:49:25;95842.81;;;1.00;83.14
34185;BME280;20454;48.100;11.776;2023-03-01T02:57:32;95833.72;;;0.94;82.74
34185;BME280;20454;48.100;11.776;2023-03-01T03:00:02;95829.59;;;0.92;82.90
34185;BME280;20454;48.100;11.776;2023-03-01T05:01:42;95805.41;;;0.46;81.44
34185;BME280;20454;48.100;11.776;2023-03-01T05:04:08;95807.00;;;0.42;81.84
34185;BME280;20454;48.100;11.776;2023-03-01T05:06:38;95805.66;;;0.44;81.30
34185;BME280;20454;48.100;11.776;2023-03-01T05:09:05;95794.06;;;0.37;81.25
34185;BME280;20454;48.100;11.776;2023-03-01T05:11:31;95793.72;;;0.34;82.19
34185;BME280;20454;48.100;11.776;2023-03-01T05:14:08;95789.63;;;0.31;82.73
34185;BME280;20454;48.100;11.776;2023-03-01T05:16:34;95797.50;;;0.28;83.19
34185;BME280;20454;48.100;11.776;2023-03-01T05:19:01;95796.13;;;0.30;82.07
34185;BME280;20454;48.100;11.776;2023-03-01T05:21:39;95798.88;;;0.30;82.22
34185;BME280;20454;48.100;11.776;2023-03-01T05:24:25;95789.78;;;0.25;82.43
34185;BME280;20454;48.100;11.776;2023-03-01T05:26:52;95786.72;;;0.21;82.82
34185;BME280;20454;48.100;11.776;2023-03-01T05:29:19;95794.44;;;0.24;82.85
34185;BME280;20454;48.100;11.776;2023-03-01T05:31:55;95781.75;;;0.18;83.37
34185;BME280;20454;48.100;11.776;2023-03-01T05:34:28;95787.56;;;0.22;83.60
34185;BME280;20454;48.100;11.776;2023-03-01T05:36:55;95786.47;;;0.23;82.69
34185;BME280;20454;48.100;11.776;2023-03-01T05:39:22;95783.16;;;0.21;82.85
34185;BME280;20454;48.100;11.776;2023-03-01T05:41:51;95779.03;;;0.18;82.94
34185;BME280;20454;48.100;11.776;2023-03-01T06:41:37;95791.38;;;0.21;82.31
34185;BME280;20454;48.100;11.776;2023-03-01T06:44:03;95791.88;;;0.18;83.19
34185;BME280;20454;48.100;11.776;2023-03-01T06:46:28;95791.28;;;0.16;83.01
34185;BME280;20454;48.100;11.776;2023-03-01T06:48:54;95783.75;;;0.23;82.57
34185;BME280;20454;48.100;11.776;2023-03-01T06:51:20;95789.03;;;0.29;82.84
34185;BME280;20454;48.100;11.776;2023-03-01T06:53:46;95789.53;;;0.26;83.35
34185;BME280;20454;48.100;11.776;2023-03-01T06:56:11;95794.75;;;0.28;83.55
34185;BME280;20454;48.100;11.776;2023-03-01T06:58:37;95796.97;;;0.31;83.26
34185;BME280;20454;48.100;11.776;2023-03-01T07:01:09;95797.88;;;0.36;83.40
34185;BME280;20454;48.100;11.776;2023-03-01T07:03:35;95792.47;;;0.41;83.99
34185;BME280;20454;48.100;11.776;2023-03-01T07:06:00;95796.44;;;0.50;82.91
34185;BME280;20454;48.100;11.776;2023-03-01T07:08:26;95797.34;;;0.56;82.48
34185;BME280;20454;48.100;11.776;2023-03-01T07:10:58;95794.84;;;0.54;82.47
34185;BME280;20454;48.100;11.776;2023-03-01T07:13:24;95785.56;;;0.55;82.32
34185;BME280;20454;48.100;11.776;2023-03-01T07:15:50;95788.38;;;0.60;81.73
34185;BME280;20454;48.100;11.776;2023-03-01T07:18:16;95794.09;;;0.59;80.99
34185;BME280;20454;48.100;11.776;2023-03-01T07:20:41;95781.75;;;0.56;80.28
34185;BME280;20454;48.100;11.776;2023-03-01T07:23:07;95787.47;;;0.55;80.04
34185;BME280;20454;48.100;11.776;2023-03-01T07:25:33;95781.94;;;0.50;80.69
34185;BME280;20454;48.100;11.776;2023-03-01T07:27:59;95778.13;;;0.51;81.37
34185;BME280;20454;48.100;11.776;2023-03-01T07:30:25;95781.19;;;0.54;81.32
34185;BME280;20454;48.100;11.776;2023-03-01T07:32:53;95782.81;;;0.55;81.61
34185;BME280;20454;48.100;11.776;2023-03-01T07:35:19;95780.41;;;0.59;81.18
34185;BME280;20454;48.100;11.776;2023-03-01T07:37:44;95780.16;;;0.60;81.41
34185;BME280;20454;48.100;11.776;2023-03-01T07:40:10;95772.53;;;0.62;81.82
34185;BME280;20454;48.100;11.776;2023-03-01T07:42:36;95762.97;;;0.65;81.24
34185;BME280;20454;48.100;11.776;2023-03-01T07:45:03;95770.50;;;0.74;79.92
34185;BME280;20454;48.100;11.776;2023-03-01T07:47:29;95777.69;;;0.80;79.90
34185;BME280;20454;48.100;11.776;2023-03-01T07:49:54;95769.19;;;0.82;79.18
34185;BME280;20454;48.100;11.776;2023-03-01T07:52:20;95767.22;;;0.77;79.29
34185;BME280;20454;48.100;11.776;2023-03-01T07:54:45;95768.06;;;0.78;77.79
34185;BME280;20454;48.100;11.776;2023-03-01T07:57:11;95763.69;;;0.77;78.39
34185;BME280;20454;48.100;11.776;2023-03-01T07:59:37;95770.34;;;0.86;78.08
34185;BME280;20454;48.100;11.776;2023-03-01T08:15:00;95757.75;;;0.85;78.24
34185;BME280;20454;48.100;11.776;2023-03-01T08:17:25;95749.41;;;0.96;77.63
34185;BME280;20454;48.100;11.776;2023-03-01T08:19:51;95759.19;;;1.14;76.13
34185;BME280;20454;48.100;11.776;2023-03-01T08:22:17;95753.59;;;1.04;77.39
34185;BME280;20454;48.100;11.776;2023-03-01T08:24:42;95757.28;;;1.14;77.24
34185;BME280;20454;48.100;11.776;2023-03-01T08:27:08;95771.63;;;1.26;76.33
34185;BME280;20454;48.100;11.776;2023-03-01T08:29:34;95765.91;;;1.28;76.62
34185;BME280;20454;48.100;11.776;2023-03-01T08:31:59;95757.63;;;1.23;75.47
34185;BME280;20454;48.100;11.776;2023-03-01T08:34:25;95752.97;;;1.23;76.57
34185;BME280;20454;48.100;11.776;2023-03-01T08:36:51;95748.13;;;1.30;76.59
34185;BME280;20454;48.100;11.776;2023-03-01T08:39:19;95737.97;;;1.31;76.01
34185;BME280;20454;48.100;11.776;2023-03-01T08:41:46;95749.31;;;1.39;77.28
34185;BME280;20454;48.100;11.776;2023-03-01T08:44:12;95739.06;;;1.56;75.48
34185;BME280;20454;48.100;11.776;2023-03-01T08:46:40;95744.56;;;1.61;73.87
34185;BME280;20454;48.100;11.776;2023-03-01T08:49:14;95736.09;;;1.63;73.79
34185;BME280;20454;48.100;11.776;2023-03-01T08:51:41;95748.03;;;1.52;75.65
34185;BME280;20454;48.100;11.776;2023-03-01T08:54:13;95745.88;;;1.54;75.48
34185;BME280;20454;48.100;11.776;2023-03-01T08:56:40;95728.53;;;1.48;75.79
34185;BME280;20454;48.100;11.776;2023-03-01T08:59:06;95726.34;;;1.45;75.41
34185;BME280;20454;48.100;11.776;2023-03-01T09:01:32;95746.69;;;1.54;75.44
34185;BME280;20454;48.100;11.776;2023-03-01T09:03:58;95738.22;;;1.56;76.41
34185;BME280;20454;48.100;11.776;2023-03-01T09:06:24;95744.09;;;1.69;73.95
34185;BME280;20454;48.100;11.776;2023-03-01T09:08:50;95737.75;;;1.64;75.74
34185;BME280;20454;48.100;11.776;2023-03-01T09:11:20;95744.66;;;1.71;76.20
34185;BME280;20454;48.100;11.776;2023-03-01T09:13:47;95723.84;;;1.75;74.59
34185;BME280;20454;48.100;11.776;2023-03-01T09:16:15;95741.19;;;1.81;73.68
34185;BME280;20454;48.100;11.776;2023-03-01T09:18:43;95727.78;;;1.84;74.57
34185;BME280;20454;48.100;11.776;2023-03-01T09:21:13;95728.56;;;1.80;74.66
34185;BME280;20454;48.100;11.776;2023-03-01T09:23:42;95723.94;;;1.85;74.89
34185;BME280;20454;48.100;11.776;2023-03-01T09:26:16;95721.06;;;2.02;74.40
34185;BME280;20454;48.100;11.776;2023-03-01T09:28:42;95702.97;;;2.06;75.11
34185;BME280;20454;48.100;11.776;2023-03-01T09:31:08;95721.41;;;2.15;74.23
34185;BME280;20454;48.100;11.776;2023-03-01T09:33:34;95728.34;;;2.28;74.44
34185;BME280;20454;48.100;11.776;2023-03-01T09:36:04;95719.59;;;2.31;71.54
34185;BME280;20454;48.100;11.776;2023-03-01T09:38:31;95715.72;;;2.27;73.47
34185;BME280;20454;48.100;11.776;2023-03-01T09:40:56;95713.84;;;2.32;74.22
34185;BME280;20454;48.100;11.776;2023-03-01T09:43:39;95722.66;;;2.44;73.98
34185;BME280;20454;48.100;11.776;2023-03-01T09:46:10;95716.16;;;2.55;72.09
34185;BME280;20454;48.100;11.776;2023-03-01T09:48:48;95720.00;;;2.54;72.17
34185;BME280;20454;48.100;11.776;2023-03-01T09:51:30;95723.09;;;2.73;71.27
34185;BME280;20454;48.100;11.776;2023-03-01T09:53:57;95713.44;;;2.65;72.02
34185;BME280;20454;48.100;11.776;2023-03-01T10:02:23;95713.28;;;2.97;71.18
34185;BME280;20454;48.100;11.776;2023-03-01T10:04:52;95714.66;;;2.99;70.25
34185;BME280;20454;48.100;11.776;2023-03-01T10:10:35;95712.16;;;2.88;69.33
34185;BME280;20454;48.100;11.776;2023-03-01T10:13:48;95705.00;;;2.82;71.00
34185;BME280;20454;48.100;11.776;2023-03-01T10:16:16;95705.00;;;2.82;70.16
34185;BME280;20454;48.100;11.776;2023-03-01T10:18:44;95698.41;;;2.78;70.84
34185;BME280;20454;48.100;11.776;2023-03-01T10:21:17;95692.13;;;2.92;71.23
34185;BME280;20454;48.100;11.776;2023-03-01T10:23:44;95696.84;;;3.07;69.61
34185;BME280;20454;48.100;11.776;2023-03-01T10:29:08;95691.97;;;3.64;67.22
34185;BME280;20454;48.100;11.776;2023-03-01T10:31:48;95688.09;;;4.15;64.56
34185;BME280;20454;48.100;11.776;2023-03-01T10:36:47;95692.66;;;5.22;60.90
34185;BME280;20454;48.100;11.776;2023-03-01T10:39:19;95690.22;;;5.59;58.71
34185;BME280;20454;48.100;11.776;2023-03-01T10:41:57;95681.16;;;5.92;59.17
34185;BME280;20454;48.100;11.776;2023-03-01T10:44:46;95677.78;;;6.57;58.01
34185;BME280;20454;48.100;11.776;2023-03-01T10:49:55;95658.78;;;6.98;53.85
34185;BME280;20454;48.100;11.776;2023-03-01T10:52:43;95646.94;;;7.16;53.30
34185;BME280;20454;48.100;11.776;2023-03-01T11:03:40;95625.06;;;7.88;50.80
34185;BME280;20454;48.100;11.776;2023-03-01T11:08:45;95609.31;;;8.02;50.62
34185;BME280;20454;48.100;11.776;2023-03-01T11:13:56;95603.88;;;8.43;50.12
34185;BME280;20454;48.100;11.776;2023-03-01T11:16:31;95596.16;;;8.40;49.15
34185;BME280;20454;48.100;11.776;2023-03-01T11:19:00;95583.34;;;8.71;49.52
34185;BME280;20454;48.100;11.776;2023-03-01T11:21:25;95596.66;;;9.09;47.73
34185;BME280;20454;48.100;11.776;2023-03-01T11:23:53;95588.25;;;8.74;47.71
34185;BME280;20454;48.100;11.776;2023-03-01T11:26:18;95589.91;;;8.61;48.34
34185;BME280;20454;48.100;11.776;2023-03-01T11:28:47;95588.47;;;8.77;49.42
34185;BME280;20454;48.100;11.776;2023-03-01T11:31:14;95579.63;;;9.02;48.82
34185;BME280;20454;48.100;11.776;2023-03-01T11:34:05;95557.34;;;9.29;47.22
34185;BME280;20454;48.100;11.776;2023-03-01T11:36:53;95564.34;;;9.27;48.72
34185;BME280;20454;48.100;11.776;2023-03-01T11:39:37;95572.44;;;9.37;48.86
34185;BME280;20454;48.100;11.776;2023-03-01T11:42:10;95555.59;;;9.33;47.09
34185;BME280;20454;48.100;11.776;2023-03-01T11:44:36;95551.75;;;9.07;47.27
34185;BME280;20454;48.100;11.776;2023-03-01T11:47:32;95543.53;;;9.02;47.64
34185;BME280;20454;48.100;11.776;2023-03-01T11:55:50;95545.22;;;8.76;50.07
34185;BME280;20454;48.100;11.776;2023-03-01T11:58:59;95560.53;;;8.60;49.25
34185;BME280;20454;48.100;11.776;2023-03-01T12:07:14;95543.91;;;8.47;50.84
34185;BME280;20454;48.100;11.776;2023-03-01T12:27:01;95491.75;;;10.94;45.37
34185;BME280;20454;48.100;11.776;2023-03-01T12:29:41;95492.13;;;11.18;43.74
34185;BME280;20454;48.100;11.776;2023-03-01T12:32:27;95488.19;;;11.19;42.41
34185;BME280;20454;48.100;11.776;2023-03-01T12:40:53;95484.06;;;10.99;43.68
34185;BME280;20454;48.100;11.776;2023-03-01T12:49:32;95479.09;;;10.71;44.06
34185;BME280;20454;48.100;11.776;2023-03-01T12:54:38;95467.75;;;10.50;44.97
34185;BME280;20454;48.100;11.776;2023-03-01T13:00:06;95489.78;;;10.38;44.96
34185;BME280;20454;48.100;11.776;2023-03-01T13:05:52;95482.16;;;9.61;47.31
34185;BME280;20454;48.100;11.776;2023-03-01T13:11:16;95495.78;;;8.92;48.52
34185;BME280;20454;48.100;11.776;2023-03-01T13:13:42;95464.63;;;8.59;50.18
34185;BME280;20454;48.100;11.776;2023-03-01T13:19:13;95495.41;;;8.85;49.65
34185;BME280;20454;48.100;11.776;2023-03-01T13:21:41;95489.38;;;8.56;50.17
34185;BME280;20454;48.100;11.776;2023-03-01T13:24:33;95476.97;;;8.53;51.69
34185;BME280;20454;48.100;11.776;2023-03-01T13:29:49;95473.44;;;8.75;51.86
34185;BME280;20454;48.100;11.776;2023-03-01T13:32:28;95460.47;;;8.70;53.82
34185;BME280;20454;48.100;11.776;2023-03-01T13:34:59;95450.19;;;8.84;52.82
34185;BME280;20454;48.100;11.776;2023-03-01T13:37:30;95456.00;;;8.96;50.92
34185;BME280;20454;48.100;11.776;2023-03-01T13:39:57;95455.81;;;8.93;50.99
34185;BME280;20454;48.100;11.776;2023-03-01T13:42:39;95469.00;;;9.09;51.20
34185;BME280;20454;48.100;11.776;2023-03-01T13:45:24;95465.78;;;9.16;51.34
34185;BME280;20454;48.100;11.776;2023-03-01T13:48:03;95447.56;;;9.45;50.47
34185;BME280;20454;48.100;11.776;2023-03-01T13:50:34;95450.06;;;9.77;50.09
34185;BME280;20454;48.100;11.776;2023-03-01T13:53:04;95445.50;;;10.11;48.56
34185;BME280;20454;48.100;11.776;2023-03-01T13:55:51;95452.84;;;10.38;46.98
34185;BME280;20454;48.100;11.776;2023-03-01T13:58:33;95449.88;;;10.34;47.87
34185;BME280;20454;48.100;11.776;2023-03-01T14:04:25;95448.66;;;10.74;46.74
34185;BME280;20454;48.100;11.776;2023-03-01T14:07:08;95411.38;;;10.75;45.62
34185;BME280;20454;48.100;11.776;2023-03-01T14:09:33;95418.72;;;10.97;46.11
34185;BME280;20454;48.100;11.776;2023-03-01T14:15:22;95416.28;;;11.21;46.06
34185;BME280;20454;48.100;11.776;2023-03-01T14:18:08;95417.59;;;11.15;46.29
34185;BME280;20454;48.100;11.776;2023-03-01T14:20:52;95410.88;;;11.16;46.97
34185;BME280;20454;48.100;11.776;2023-03-01T14:23:22;95391.38;;;10.99;46.44
34185;BME280;20454;48.100;11.776;2023-03-01T14:25:51;95406.13;;;10.82;45.34
34185;BME280;20454;48.100;11.776;2023-03-01T14:28:38;95411.81;;;10.52;48.16
34185;BME280;20454;48.100;11.776;2023-03-01T14:31:37;95408.78;;;10.23;48.62
34185;BME280;20454;48.100;11.776;2023-03-01T14:34:03;95413.34;;;9.88;50.40
34185;BME280;20454;48.100;11.776;2023-03-01T14:36:32;95414.97;;;9.51;49.74
34185;BME280;20454;48.100;11.776;2023-03-01T14:38:58;95404.19;;;9.27;51.51
34185;BME280;20454;48.100;11.776;2023-03-01T14:41:34;95391.38;;;8.96;51.73
34185;BME280;20454;48.100;11.776;2023-03-01T14:44:06;95413.50;;;8.87;51.96
34185;BME280;20454;48.100;11.776;2023-03-01T14:46:37;95409.56;;;8.66;52.74
34185;BME280;20454;48.100;11.776;2023-03-01T14:49:19;95418.16;;;8.43;53.96
34185;BME280;20454;48.100;11.776;2023-03-01T14:54:24;95402.25;;;8.08;55.30
34185;BME280;20454;48.100;11.776;2023-03-01T14:56:51;95412.00;;;7.92;56.76
34185;BME280;20454;48.100;11.776;2023-03-01T14:59:21;95414.25;;;7.90;56.67
34185;BME280;20454;48.100;11.776;2023-03-01T15:01:47;95401.41;;;7.80;57.46
34185;BME280;20454;48.100;11.776;2023-03-01T15:04:13;95407.59;;;7.77;58.79
34185;BME280;20454;48.100;11.776;2023-03-01T15:06:39;95413.53;;;7.71;58.22
34185;BME280;20454;48.100;11.776;2023-03-01T15:09:06;95399.97;;;7.56;59.21
34185;BME280;20454;48.100;11.776;2023-03-01T15:11:36;95399.66;;;7.44;58.60
34185;BME280;20454;48.100;11.776;2023-03-01T15:14:27;95408.56;;;7.41;59.43
34185;BME280;20454;48.100;11.776;2023-03-01T15:16:53;95395.22;;;7.29;58.59
34185;BME280;20454;48.100;11.776;2023-03-01T15:19:19;95402.59;;;7.20;59.33
34185;BME280;20454;48.100;11.776;2023-03-01T15:21:47;95383.16;;;7.07;60.17
34185;BME280;20454;48.100;11.776;2023-03-01T16:21:20;95382.66;;;5.99;68.44
34185;BME280;20454;48.100;11.776;2023-03-01T16:23:46;95380.25;;;5.92;68.37
34185;BME280;20454;48.100;11.776;2023-03-01T16:26:12;95385.84;;;5.87;69.05
34185;BME280;20454;48.100;11.776;2023-03-01T16:28:42;95384.88;;;5.73;69.27
34185;BME280;20454;48.100;11.776;2023-03-01T16:31:08;95384.13;;;5.68;70.20
34185;BME280;20454;48.100;11.776;2023-03-01T16:33:35;95387.53;;;5.60;70.16
34185;BME280;20454;48.100;11.776;2023-03-01T16:36:08;95385.94;;;5.54;70.82
34185;BME280;20454;48.100;11.776;2023-03-01T16:38:34;95386.59;;;5.46;70.82
34185;BME280;20454;48.100;11.776;2023-03-01T16:41:00;95394.44;;;5.34;70.87
34185;BME280;20454;48.100;11.776;2023-03-01T16:43:26;95389.38;;;5.17;71.77
34185;BME280;20454;48.100;11.776;2023-03-01T16:45:51;95399.41;;;5.08;72.92
34185;BME280;20454;48.100;11.776;2023-03-01T16:48:17;95399.56;;;4.93;72.85
34185;BME280;20454;48.100;11.776;2023-03-01T16:50:43;95402.47;;;4.78;73.42
34185;BME280;20454;48.100;11.776;2023-03-01T16:53:08;95408.03;;;4.68;74.35
34185;BME280;20454;48.100;11.776;2023-03-01T16:55:34;95407.88;;;4.55;74.83
34185;BME280;20454;48.100;11.776;2023-03-01T16:58:00;95417.63;;;4.43;75.45
34185;BME280;20454;48.100;11.776;2023-03-01T17:00:26;95422.13;;;4.29;75.71
34185;BME280;20454;48.100;11.776;2023-03-01T17:02:53;95436.78;;;4.19;76.70
34185;BME280;20454;48.100;11.776;2023-03-01T17:05:19;95430.25;;;4.05;77.12
34185;BME280;20454;48.100;11.776;2023-03-01T17:07:46;95436.63;;;3.96;78.04
34185;BME280;20454;48.100;11.776;2023-03-01T17:10:11;95437.22;;;3.83;78.19
34185;BME280;20454;48.100;11.776;2023-03-01T17:12:38;95439.47;;;3.76;78.52
34185;BME280;20454;48.100;11.776;2023-03-01T17:15:05;95438.09;;;3.68;78.74
34185;BME280;20454;48.100;11.776;2023-03-01T17:17:31;95434.03;;;3.56;79.41
34185;BME280;20454;48.100;11.776;2023-03-01T17:19:57;95440.91;;;3.48;79.73
34185;BME280;20454;48.100;11.776;2023-03-01T17:22:23;95434.63;;;3.38;80.18
34185;BME280;20454;48.100;11.776;2023-03-01T17:24:48;95438.22;;;3.28;80.45
34185;BME280;20454;48.100;11.776;2023-03-01T17:27:14;95447.59;;;3.22;80.14
34185;BME280;20454;48.100;11.776;2023-03-01T17:29:40;95445.41;;;3.14;81.28
34185;BME280;20454;48.100;11.776;2023-03-01T21:12:22;95432.31;;;0.62;99.65
34185;BME280;20454;48.100;11.776;2023-03-01T21:14:48;95421.13;;;0.63;100.00
34185;BME280;20454;48.100;11.776;2023-03-01T21:17:15;95430.47;;;0.72;100.00
34185;BME280;20454;48.100;11.776;2023-03-01T21:19:42;95428.03;;;0.76;100.00
34185;BME280;20454;48.100;11.776;2023-03-01T21:22:12;95427.22;;;0.75;100.00
34185;BME280;20454;48.100;11.776;2023-03-01T21:24:38;95433.81;;;0.79;100.00
34185;BME280;20454;48.100;11.776;2023-03-01T21:27:04;95418.78;;;0.77;99.89
34185;BME280;20454;48.100;11.776;2023-03-01T21:29:42;95424.78;;;0.79;100.00
34185;BME280;20454;48.100;11.776;2023-03-01T21:32:09;95419.31;;;0.79;99.96
34185;BME280;20454;48.100;11.776;2023-03-01T21:34:36;95416.88;;;0.82;100.00
34185;BME280;20454;48.100;11.776;2023-03-01T21:37:02;95412.22;;;0.83;100.00
34185;BME280;20454;48.100;11.776;2023-03-01T21:39:28;95407.31;;;0.85;100.00
34185;BME280;20454;48.100;11.776;2023-03-01T21:41:55;95414.44;;;0.86;99.88
34185;BME280;20454;48.100;11.776;2023-03-01T21:44:22;95419.91;;;0.86;99.95
34185;BME280;20454;48.100;11.776;2023-03-01T21:46:48;95400.47;;;0.82;100.00
34185;BME280;20454;48.100;11.776;2023-03-01T21:49:14;95403.50;;;0.86;99.65
34185;BME280;20454;48.100;11.776;2023-03-01T21:51:39;95414.44;;;0.86;99.55
34185;BME280;20454;48.100;11.776;2023-03-01T21:54:05;95408.13;;;0.85;99.75
34185;BME280;20454;48.100;11.776;2023-03-01T21:56:32;95395.50;;;0.79;99.28
34185;BME280;20454;48.100;11.776;2023-03-01T21:58:59;95403.19;;;0.82;99.25
34185;BME280;20454;48.100;11.776;2023-03-01T22:01:26;95403.44;;;0.81;99.77
34185;BME280;20454;48.100;11.776;2023-03-01T22:03:52;95400.16;;;0.79;99.36
34185;BME280;20454;48.100;11.776;2023-03-01T22:06:25;95403.16;;;0.77;99.51
34185;BME280;20454;48.100;11.776;2023-03-01T22:08:57;95396.88;;;0.77;99.92
34185;BME280;20454;48.100;11.776;2023-03-01T22:11:25;95399.06;;;0.80;99.71
34185;BME280;20454;48.100;11.776;2023-03-01T22:13:53;95398.22;;;0.79;100.00
34185;BME280;20454;48.100;11.776;2023-03-01T22:16:21;95387.81;;;0.76;99.71
34185;BME280;20454;48.100;11.776;2023-03-01T22:18:48;95373.00;;;0.67;99.65
34185;BME280;20454;48.100;11.776;2023-03-01T22:21:14;95382.88;;;0.73;99.66
34185;BME280;20454;48.100;11.776;2023-03-01T22:23:40;95396.81;;;0.72;99.96
34185;BME280;20454;48.100;11.776;2023-03-01T22:26:06;95402.06;;;0.73;100.00
34185;BME280;20454;48.100;11.776;2023-03-01T22:28:33;95397.09;;;0.70;99.92
34185;BME280;20454;48.100;11.776;2023-03-01T22:31:02;95392.44;;;0.71;100.00
34185;BME280;20454;48.100;11.776;2023-03-01T22:33:28;95383.41;;;0.70;100.00
34185;BME280;20454;48.100;11.776;2023-03-01T22:35:54;95373.00;;;0.67;100.00
34185;BME280;20454;48.100;11.776;2023-03-01T22:38:20;95367.53;;;0.67;100.00
34185;BME280;20454;48.100;11.776;2023-03-01T22:40:55;95365.59;;;0.63;100.00
34185;BME280;20454;48.100;11.776;2023-03-01T22:43:20;95383.09;;;0.67;100.00
34185;BME280;20454;48.100;11.776;2023-03-01T22:45:46;95376.78;;;0.61;100.00